Time;durP1;ratioP1;P1;durP2;ratioP2;P2;SDS_P1;SDS_P2;PMS_P1;PMS_P2;Temp;Humidity;BMP_temperature;BMP_pressure;BME280_temperature;BME280_humidity;BME280_pressure;Samples;Min_cycle;Max_cycle;Signal;HPM_P1;HPM_P2
2022/12/20 00:00:58;;;;;;;9.52;5.20;;;8.90;99.90;;;;;;4964175;28;20081;-76
2022/12/20 00:03:23;;;;;;;10.20;5.30;;;9.00;99.90;;;;;;4954254;28;20070;-74
2022/12/20 00:05:49;;;;;;;10.57;5.25;;;8.90;99.90;;;;;;4951023;28;20090;-76
2022/12/20 00:08:16;;;;;;;9.38;5.20;;;8.90;99.90;;;;;;4935117;28;20042;-75
2022/12/20 00:10:44;;;;;;;8.15;4.78;;;8.90;99.90;;;;;;4951658;28;20570;-74
2022/12/20 00:13:11;;;;;;;8.05;4.90;;;9.00;99.90;;;;;;4954146;28;20061;-75
2022/12/20 00:15:37;;;;;;;9.05;4.93;;;8.90;99.90;;;;;;4952721;28;20094;-75
2022/12/20 00:18:03;;;;;;;9.32;4.90;;;9.00;99.90;;;;;;4966602;28;20071;-73
2022/12/20 00:20:29;;;;;;;8.45;5.00;;;9.00;99.90;;;;;;4936942;28;20497;-76
2022/12/20 00:22:55;;;;;;;8.95;5.20;;;9.00;99.90;;;;;;4950781;28;20495;-77
2022/12/20 00:25:21;;;;;;;9.52;5.32;;;8.90;99.90;;;;;;4953935;28;20230;-74
2022/12/20 00:27:48;;;;;;;9.30;5.30;;;8.90;99.90;;;;;;4970571;28;20097;-76
2022/12/20 00:30:14;;;;;;;9.10;5.10;;;8.90;99.90;;;;;;4937465;28;20044;-77
2022/12/20 00:32:40;;;;;;;9.13;5.10;;;8.90;99.90;;;;;;4952855;28;20046;-77
2022/12/20 00:35:06;;;;;;;10.57;5.00;;;8.90;99.90;;;;;;4933547;28;20478;-76
2022/12/20 00:37:32;;;;;;;9.05;5.30;;;9.00;99.90;;;;;;4935237;28;20481;-77
2022/12/20 00:39:58;;;;;;;9.02;5.05;;;9.00;99.90;;;;;;4938492;28;20131;-71
2022/12/20 00:42:23;;;;;;;8.20;4.57;;;9.00;99.90;;;;;;4964213;28;20049;-77
2022/12/20 00:44:49;;;;;;;8.57;5.07;;;9.10;99.90;;;;;;4936112;28;20085;-75
2022/12/20 00:47:15;;;;;;;8.50;4.70;;;9.10;99.90;;;;;;4948696;28;20051;-76
2022/12/20 00:49:40;;;;;;;8.68;5.20;;;9.10;99.90;;;;;;4937969;28;20043;-75
2022/12/20 00:52:06;;;;;;;8.82;4.70;;;9.20;99.90;;;;;;4949251;28;20057;-76
2022/12/20 00:54:32;;;;;;;7.82;4.57;;;9.20;99.90;;;;;;4954671;28;20063;-76
2022/12/20 00:56:58;;;;;;;8.13;4.78;;;9.20;99.90;;;;;;4948922;28;20047;-75
2022/12/20 00:59:24;;;;;;;8.75;4.90;;;9.20;99.90;;;;;;4969648;28;20565;-77
2022/12/20 01:01:50;;;;;;;8.50;4.78;;;9.20;99.90;;;;;;4953022;28;20043;-77
2022/12/20 01:04:16;;;;;;;8.40;4.88;;;9.20;99.90;;;;;;4949179;28;20057;-77
2022/12/20 01:06:41;;;;;;;8.48;4.50;;;9.20;99.90;;;;;;4950729;28;20396;-76
2022/12/20 01:09:07;;;;;;;7.35;4.53;;;9.20;99.90;;;;;;4952812;28;20044;-74
2022/12/20 01:11:34;;;;;;;7.60;4.22;;;9.30;99.90;;;;;;4951290;28;20573;-74
2022/12/20 01:14:10;;;;;;;9.15;4.18;;;9.10;99.90;;;;;;4950281;28;20054;-75
2022/12/20 01:16:43;;;;;;;9.55;4.25;;;9.10;99.90;;;;;;4947752;28;20054;-75
2022/12/20 01:19:12;;;;;;;8.88;4.40;;;9.20;99.90;;;;;;4950546;28;20180;-74
2022/12/20 01:21:43;;;;;;;6.88;4.20;;;9.10;99.90;;;;;;4949789;28;20054;-75
2022/12/20 01:24:17;;;;;;;8.05;4.57;;;9.10;99.90;;;;;;4946025;28;20057;-77
2022/12/20 01:26:44;;;;;;;8.35;4.50;;;9.10;99.90;;;;;;4951374;28;20537;-77
2022/12/20 01:29:09;;;;;;;6.90;4.30;;;9.10;99.90;;;;;;4953100;28;20039;-76
2022/12/20 01:31:35;;;;;;;8.65;4.50;;;9.10;99.90;;;;;;4968210;28;20442;-77
2022/12/20 01:34:01;;;;;;;8.75;4.30;;;9.10;99.90;;;;;;4952958;28;20490;-76
2022/12/20 01:36:30;;;;;;;7.95;4.13;;;9.20;99.90;;;;;;4952326;28;20518;-77
2022/12/20 01:38:58;;;;;;;7.90;4.38;;;9.20;99.90;;;;;;4950404;28;20468;-76
2022/12/20 01:41:24;;;;;;;9.13;4.50;;;9.20;99.90;;;;;;4952673;28;20039;-73
2022/12/20 01:43:56;;;;;;;8.98;4.60;;;9.10;99.90;;;;;;4951047;28;20054;-76
2022/12/20 01:46:24;;;;;;;7.85;4.80;;;9.10;99.90;;;;;;4952283;28;20095;-76
2022/12/20 01:49:00;;;;;;;8.20;4.40;;;9.20;99.90;;;;;;4953069;28;20051;-72
2022/12/20 01:51:28;;;;;;;7.07;3.95;;;9.20;99.90;;;;;;4954687;28;20134;-76
2022/12/20 01:54:02;;;;;;;8.70;4.35;;;9.20;99.90;;;;;;4966760;28;20437;-75
2022/12/20 01:56:28;;;;;;;8.30;4.25;;;9.20;99.90;;;;;;4952596;28;20043;-75
2022/12/20 01:58:54;;;;;;;6.97;4.10;;;9.20;99.90;;;;;;4950722;28;20537;-76
2022/12/20 02:01:22;;;;;;;7.38;4.10;;;9.20;99.90;;;;;;4951671;28;20043;-72
2022/12/20 02:03:50;;;;;;;7.25;4.25;;;9.20;99.90;;;;;;4967370;28;20059;-77
2022/12/20 02:06:21;;;;;;;7.10;4.30;;;9.20;99.90;;;;;;4951130;28;20051;-74
2022/12/20 02:08:49;;;;;;;8.38;4.50;;;9.20;99.90;;;;;;4947961;28;20051;-73
2022/12/20 02:11:37;;;;;;;7.97;4.40;;;9.30;99.90;;;;;;4949098;28;20495;-75
2022/12/20 02:14:08;;;;;;;7.32;3.90;;;9.30;99.90;;;;;;4950185;28;20115;-74
2022/12/20 02:16:47;;;;;;;7.80;4.30;;;9.30;99.90;;;;;;4951628;28;20055;-76
2022/12/20 02:19:36;;;;;;;7.18;4.13;;;9.30;99.90;;;;;;4952422;28;20206;-76
2022/12/20 02:22:37;;;;;;;7.00;3.90;;;9.30;99.90;;;;;;4930560;28;20067;-75
2022/12/20 02:25:09;;;;;;;7.45;4.07;;;9.30;99.90;;;;;;4907592;29;20088;-76
2022/12/20 02:27:57;;;;;;;7.25;3.85;;;9.30;99.90;;;;;;4925558;28;20121;-77
2022/12/20 02:30:26;;;;;;;8.25;3.83;;;9.30;99.90;;;;;;4947944;28;20051;-74
2022/12/20 02:32:55;;;;;;;7.80;4.13;;;9.40;99.90;;;;;;4935010;28;20094;-76
2022/12/20 02:35:27;;;;;;;6.80;3.50;;;9.40;99.90;;;;;;4949975;28;20047;-75
2022/12/20 02:37:59;;;;;;;7.50;4.05;;;9.40;99.90;;;;;;4930286;28;20052;-76
2022/12/20 02:40:44;;;;;;;8.43;3.90;;;9.40;99.90;;;;;;4948628;28;20044;-76
2022/12/20 02:45:14;;;;;;;6.97;3.92;;;9.40;99.90;;;;;;4946603;28;20077;-76
2022/12/20 02:45:59;;;;;;;7.65;4.05;;;9.40;99.90;;;;;;4963401;28;20138;-73
2022/12/20 02:48:28;;;;;;;7.90;4.00;;;9.50;99.90;;;;;;4950934;28;20050;-76
2022/12/20 02:50:56;;;;;;;7.45;4.28;;;9.40;99.90;;;;;;4950897;28;20054;-77
2022/12/20 02:53:22;;;;;;;6.45;4.15;;;9.40;99.90;;;;;;4952516;28;20051;-76
2022/12/20 02:56:03;;;;;;;8.05;4.10;;;9.40;99.90;;;;;;4934453;28;20130;-75
2022/12/20 02:58:38;;;;;;;8.73;4.13;;;9.40;99.90;;;;;;4950016;28;20111;-74
2022/12/20 03:01:16;;;;;;;9.13;4.30;;;9.50;99.90;;;;;;4951947;28;20054;-75
2022/12/20 03:03:42;;;;;;;7.80;4.25;;;9.50;99.90;;;;;;4934010;28;20424;-77
2022/12/20 03:06:08;;;;;;;6.15;4.00;;;9.50;99.90;;;;;;4952677;28;20055;-74
2022/12/20 03:08:34;;;;;;;6.68;4.22;;;9.50;99.90;;;;;;4948377;28;20109;-73
2022/12/20 03:11:00;;;;;;;8.15;4.30;;;9.50;99.90;;;;;;4951303;28;20073;-76
2022/12/20 03:13:25;;;;;;;7.22;4.05;;;9.50;99.90;;;;;;4950852;28;20101;-77
2022/12/20 03:15:51;;;;;;;8.00;4.18;;;9.40;99.90;;;;;;4949010;28;20055;-77
2022/12/20 03:18:17;;;;;;;6.78;4.13;;;9.50;99.90;;;;;;4950655;28;20043;-73
2022/12/20 03:20:43;;;;;;;9.75;4.40;;;9.40;99.90;;;;;;4951338;28;20043;-77
2022/12/20 03:23:09;;;;;;;8.13;4.95;;;9.40;99.90;;;;;;4950387;28;20129;-77
2022/12/20 03:25:34;;;;;;;8.50;4.82;;;9.40;99.90;;;;;;4948519;28;20063;-76
2022/12/20 03:28:00;;;;;;;8.38;4.95;;;9.40;99.90;;;;;;4950450;28;20125;-77
2022/12/20 03:30:26;;;;;;;7.70;4.65;;;9.40;99.90;;;;;;4955573;28;20074;-77
2022/12/20 03:32:52;;;;;;;7.45;4.82;;;9.40;99.90;;;;;;4955084;28;20101;-75
2022/12/20 03:35:17;;;;;;;9.40;5.45;;;9.30;99.90;;;;;;4951626;28;20057;-74
2022/12/20 03:37:43;;;;;;;8.23;5.22;;;9.30;99.90;;;;;;4952723;28;20399;-76
2022/12/20 03:40:09;;;;;;;8.45;5.18;;;9.30;99.90;;;;;;4956246;28;20483;-75
2022/12/20 03:42:36;;;;;;;7.40;4.95;;;9.20;99.90;;;;;;4936859;28;20051;-75
2022/12/20 03:45:02;;;;;;;8.05;4.80;;;9.30;99.90;;;;;;4954224;28;20537;-74
2022/12/20 03:47:28;;;;;;;9.50;5.50;;;9.30;99.90;;;;;;4950850;28;20375;-74
2022/12/20 03:49:53;;;;;;;8.23;5.03;;;9.30;99.90;;;;;;4953172;28;20047;-75
2022/12/20 03:52:19;;;;;;;7.82;5.25;;;9.30;99.90;;;;;;4954423;28;20047;-75
2022/12/20 03:54:45;;;;;;;9.15;5.00;;;9.30;99.90;;;;;;4918083;28;20051;-76
2022/12/20 03:57:10;;;;;;;7.75;4.68;;;9.30;99.90;;;;;;4955207;28;20051;-74
2022/12/20 03:59:36;;;;;;;9.52;5.28;;;9.40;99.90;;;;;;4953470;28;20054;-76
2022/12/20 04:02:03;;;;;;;9.40;4.93;;;9.40;99.90;;;;;;4931553;28;20745;-77
2022/12/20 04:04:29;;;;;;;8.93;5.20;;;9.40;99.90;;;;;;4952715;28;20082;-75
2022/12/20 04:06:55;;;;;;;8.25;5.13;;;9.40;99.90;;;;;;4952020;28;20070;-76
2022/12/20 04:09:20;;;;;;;11.07;5.38;;;9.50;99.90;;;;;;4951283;28;20089;-75
2022/12/20 04:11:46;;;;;;;9.07;5.00;;;9.50;99.90;;;;;;4950518;28;20133;-74
2022/12/20 04:14:12;;;;;;;8.93;5.28;;;9.40;99.90;;;;;;4936841;28;20061;-74
2022/12/20 04:16:37;;;;;;;7.85;5.28;;;9.40;99.90;;;;;;4954382;28;20081;-75
2022/12/20 04:19:03;;;;;;;10.13;5.85;;;9.40;99.90;;;;;;4950598;28;20076;-75
2022/12/20 04:21:32;;;;;;;9.50;5.50;;;9.40;99.90;;;;;;4954278;28;20100;-77
2022/12/20 04:24:00;;;;;;;9.85;5.40;;;9.40;99.90;;;;;;4964417;28;20091;-75
2022/12/20 04:26:27;;;;;;;11.57;6.00;;;9.50;99.90;;;;;;4952668;28;20486;-76
2022/12/20 04:28:53;;;;;;;9.88;5.40;;;9.40;99.90;;;;;;4953207;28;20061;-72
2022/12/20 04:31:18;;;;;;;9.32;5.45;;;9.50;99.90;;;;;;4955038;28;20129;-74
2022/12/20 04:33:45;;;;;;;9.48;6.00;;;9.60;99.90;;;;;;4967426;28;20118;-75
2022/12/20 04:36:11;;;;;;;9.27;5.78;;;9.50;99.90;;;;;;4951092;28;20043;-76
2022/12/20 04:38:36;;;;;;;8.90;5.88;;;9.40;99.90;;;;;;4951570;28;20047;-73
2022/12/20 04:41:02;;;;;;;8.93;5.90;;;9.40;99.90;;;;;;4950354;28;20050;-75
2022/12/20 04:43:28;;;;;;;9.07;5.70;;;9.40;99.90;;;;;;4922712;28;20038;-73
2022/12/20 04:45:56;;;;;;;8.63;5.80;;;9.40;99.90;;;;;;4968263;28;20051;-74
2022/12/20 04:48:25;;;;;;;10.15;6.20;;;9.40;99.90;;;;;;4953064;28;20089;-76
2022/12/20 04:50:52;;;;;;;10.38;5.43;;;9.40;99.90;;;;;;4936739;28;20049;-73
2022/12/20 04:56:04;;;;;;;10.98;5.60;;;9.50;99.90;;;;;;4955530;28;20516;-76
2022/12/20 04:58:30;;;;;;;11.10;5.90;;;9.50;99.90;;;;;;4952738;28;20050;-75
2022/12/20 05:00:56;;;;;;;10.10;5.55;;;9.40;99.90;;;;;;4938449;28;20090;-74
2022/12/20 05:03:23;;;;;;;9.05;5.82;;;9.50;99.90;;;;;;4954711;28;20054;-75
2022/12/20 05:05:49;;;;;;;9.35;5.95;;;9.50;99.90;;;;;;4949709;28;20051;-74
2022/12/20 05:08:15;;;;;;;8.43;5.35;;;9.50;99.90;;;;;;4950234;28;20051;-76
2022/12/20 05:10:41;;;;;;;8.52;5.82;;;9.60;99.90;;;;;;4951709;28;20053;-75
2022/12/20 05:13:07;;;;;;;8.00;4.85;;;9.60;99.90;;;;;;4955004;28;20054;-75
2022/12/20 05:15:33;;;;;;;7.65;4.78;;;9.60;99.90;;;;;;4930618;28;20051;-74
2022/12/20 05:17:59;;;;;;;8.18;4.63;;;9.80;99.90;;;;;;4931652;28;20102;-75
2022/12/20 05:20:29;;;;;;;7.90;4.50;;;9.80;99.90;;;;;;4954190;28;20074;-75
2022/12/20 05:26:16;;;;;;;7.93;4.45;;;9.90;99.90;;;;;;4951015;28;20058;-73
2022/12/20 05:28:35;;;;;;;8.40;4.10;;;9.90;99.90;;;;;;4948193;28;20055;-75
2022/12/20 05:31:01;;;;;;;7.25;4.57;;;10.00;99.90;;;;;;4951907;28;20506;-77
2022/12/20 05:33:27;;;;;;;8.45;4.22;;;10.10;99.90;;;;;;4949937;28;20062;-74
2022/12/20 05:35:54;;;;;;;7.85;4.07;;;10.10;99.90;;;;;;4948899;28;20534;-74
2022/12/20 05:38:20;;;;;;;6.47;3.85;;;10.10;99.90;;;;;;4938593;28;20109;-74
2022/12/20 05:40:48;;;;;;;7.70;3.95;;;10.10;99.90;;;;;;4941832;28;20043;-73
2022/12/20 05:43:14;;;;;;;8.13;3.67;;;10.20;99.90;;;;;;4944259;28;20399;-75
2022/12/20 05:45:44;;;;;;;8.00;4.05;;;10.20;99.90;;;;;;4921769;28;20051;-74
2022/12/20 05:48:10;;;;;;;7.90;4.07;;;10.20;99.90;;;;;;4941826;28;20039;-74
2022/12/20 05:50:35;;;;;;;8.45;3.72;;;10.20;99.90;;;;;;4951606;28;20101;-73
2022/12/20 05:53:01;;;;;;;7.05;3.95;;;10.20;99.90;;;;;;4933780;28;20517;-75
2022/12/20 05:55:27;;;;;;;8.30;3.97;;;10.30;99.90;;;;;;4949153;28;20050;-72
2022/12/20 05:57:52;;;;;;;6.40;3.70;;;10.30;99.90;;;;;;4932567;28;20055;-73
2022/12/20 06:00:18;;;;;;;8.40;3.92;;;10.30;99.90;;;;;;4967095;28;20458;-74
2022/12/20 06:02:44;;;;;;;7.20;4.28;;;10.30;99.90;;;;;;4946465;28;20080;-75
2022/12/20 06:05:10;;;;;;;6.32;3.50;;;10.30;99.90;;;;;;4945383;28;20039;-76
2022/12/20 06:07:35;;;;;;;6.72;3.90;;;10.40;99.90;;;;;;4927508;28;20086;-74
2022/12/20 06:10:01;;;;;;;8.00;3.80;;;10.40;99.90;;;;;;4965425;28;20372;-75
2022/12/20 06:12:27;;;;;;;6.80;3.78;;;10.50;99.90;;;;;;4949488;28;20038;-74
2022/12/20 06:14:52;;;;;;;7.15;3.78;;;10.40;99.90;;;;;;4943120;28;20251;-77
2022/12/20 06:17:20;;;;;;;7.28;3.70;;;10.40;99.90;;;;;;4944944;28;20043;-75
2022/12/20 06:19:46;;;;;;;6.95;4.10;;;10.40;99.90;;;;;;4934587;28;20145;-76
2022/12/20 06:22:12;;;;;;;7.43;4.22;;;10.40;99.90;;;;;;4928964;28;20066;-72
2022/12/20 06:24:38;;;;;;;7.65;4.05;;;10.30;99.90;;;;;;4938672;28;20047;-76
2022/12/20 06:27:05;;;;;;;7.30;4.32;;;10.30;99.90;;;;;;4943243;28;20050;-75
2022/12/20 06:29:32;;;;;;;7.82;4.03;;;10.30;99.90;;;;;;4946136;28;20057;-76
2022/12/20 06:31:58;;;;;;;6.50;3.90;;;10.30;99.90;;;;;;4943627;28;20043;-74
2022/12/20 06:34:23;;;;;;;7.85;3.90;;;10.40;99.90;;;;;;4943114;28;20038;-72
2022/12/20 06:36:49;;;;;;;7.47;3.88;;;10.20;99.90;;;;;;4940343;28;20130;-73
2022/12/20 06:39:15;;;;;;;7.70;4.07;;;10.40;99.90;;;;;;4961272;28;20053;-75
2022/12/20 06:41:41;;;;;;;7.53;4.22;;;10.50;99.90;;;;;;4940801;28;20075;-74
2022/12/20 06:44:06;;;;;;;7.72;4.40;;;10.50;99.90;;;;;;4944700;28;20074;-75
2022/12/20 06:46:32;;;;;;;7.15;4.10;;;10.40;99.90;;;;;;4940283;28;20399;-75
2022/12/20 06:48:58;;;;;;;7.97;4.55;;;10.50;99.90;;;;;;4943740;28;20039;-77
2022/12/20 06:51:24;;;;;;;9.52;4.90;;;10.50;99.90;;;;;;4945944;28;20047;-78
2022/12/20 06:53:50;;;;;;;9.65;5.38;;;10.30;99.90;;;;;;4944192;28;20415;-74
2022/12/20 06:56:15;;;;;;;8.63;5.28;;;10.30;99.90;;;;;;4921782;28;20058;-77
2022/12/20 06:58:41;;;;;;;9.60;5.57;;;10.20;99.90;;;;;;4945612;28;20502;-73
2022/12/20 07:01:07;;;;;;;10.10;5.55;;;10.20;99.90;;;;;;4928404;28;20047;-74
2022/12/20 07:03:33;;;;;;;9.40;5.88;;;10.20;99.90;;;;;;4942424;28;20391;-74
2022/12/20 07:05:58;;;;;;;9.88;6.30;;;10.10;99.90;;;;;;4947898;28;20051;-77
2022/12/20 07:08:24;;;;;;;8.90;5.93;;;10.10;99.90;;;;;;4935086;28;20043;-74
2022/12/20 07:10:55;;;;;;;8.98;6.05;;;10.10;99.90;;;;;;4956050;28;20042;-73
2022/12/20 07:13:21;;;;;;;11.10;6.20;;;10.10;99.90;;;;;;4928358;28;20534;-77
2022/12/20 07:15:47;;;;;;;11.13;6.63;;;10.00;99.90;;;;;;4945622;28;20054;-76
2022/12/20 07:18:13;;;;;;;13.13;7.18;;;10.00;99.90;;;;;;4944305;28;20126;-76
2022/12/20 07:20:39;;;;;;;10.48;5.85;;;10.00;99.90;;;;;;4938930;28;20050;-76
2022/12/20 07:23:05;;;;;;;10.00;7.05;;;10.00;99.90;;;;;;4948360;28;20133;-76
2022/12/20 07:25:30;;;;;;;9.70;6.13;;;10.00;99.90;;;;;;4952782;28;20137;-73
2022/12/20 07:27:57;;;;;;;11.73;6.82;;;10.00;99.90;;;;;;4964604;28;20130;-75
2022/12/20 07:30:23;;;;;;;12.40;7.60;;;10.00;99.90;;;;;;4933615;28;20054;-75
2022/12/20 07:32:48;;;;;;;10.95;7.53;;;10.00;99.90;;;;;;4948123;28;20065;-73
2022/12/20 07:35:14;;;;;;;11.05;7.25;;;10.00;99.90;;;;;;4948654;28;20399;-76
2022/12/20 07:37:40;;;;;;;11.85;7.63;;;10.00;99.90;;;;;;4927742;28;20083;-74
2022/12/20 07:40:07;;;;;;;11.25;7.15;;;10.00;99.90;;;;;;4948887;28;20130;-73
2022/12/20 07:42:33;;;;;;;11.40;8.15;;;10.10;99.90;;;;;;4947081;28;20054;-77
2022/12/20 07:44:59;;;;;;;10.93;8.15;;;10.10;99.90;;;;;;4947367;28;20050;-75
2022/12/20 07:47:24;;;;;;;11.85;8.43;;;10.10;99.90;;;;;;4949122;28;20109;-76
2022/12/20 07:49:50;;;;;;;10.40;7.25;;;10.10;99.90;;;;;;4953302;28;20059;-77
2022/12/20 07:52:21;;;;;;;11.85;7.55;;;10.10;99.90;;;;;;4952288;28;20428;-76
2022/12/20 07:54:51;;;;;;;11.23;7.63;;;10.00;99.90;;;;;;4953830;28;20054;-77
2022/12/20 07:57:40;;;;;;;10.93;7.60;;;10.00;99.90;;;;;;4953991;28;20053;-75
2022/12/20 08:00:08;;;;;;;12.25;7.60;;;9.90;99.90;;;;;;4936453;28;20047;-75
2022/12/20 08:02:41;;;;;;;12.82;7.10;;;10.00;99.90;;;;;;4952530;28;20402;-76
2022/12/20 08:05:08;;;;;;;11.27;6.80;;;10.00;99.90;;;;;;4952889;28;20050;-72
2022/12/20 08:07:37;;;;;;;9.68;6.32;;;10.00;99.90;;;;;;4952460;28;20061;-73
2022/12/20 08:10:05;;;;;;;10.88;6.07;;;10.00;99.90;;;;;;4952737;28;20047;-76
2022/12/20 08:12:32;;;;;;;8.23;5.65;;;10.00;99.90;;;;;;4952982;28;20050;-77
2022/12/20 08:14:58;;;;;;;9.43;5.70;;;10.10;99.90;;;;;;4934717;28;20133;-76
2022/12/20 08:17:24;;;;;;;8.80;5.15;;;10.10;99.90;;;;;;4948492;28;20054;-77
2022/12/20 08:19:50;;;;;;;8.07;5.43;;;10.10;99.90;;;;;;4951736;28;20061;-74
2022/12/20 08:22:18;;;;;;;7.78;5.22;;;10.10;99.90;;;;;;4950865;28;20066;-76
2022/12/20 08:24:44;;;;;;;9.55;5.55;;;10.20;99.90;;;;;;4955461;28;20046;-76
2022/12/20 08:27:10;;;;;;;8.70;5.18;;;10.20;99.90;;;;;;4952863;28;20082;-74
2022/12/20 08:29:35;;;;;;;10.52;5.20;;;10.30;99.90;;;;;;4969954;28;20085;-73
2022/12/20 08:32:01;;;;;;;8.23;4.22;;;10.30;99.90;;;;;;4924911;28;20410;-72
2022/12/20 08:34:27;;;;;;;8.60;4.80;;;10.30;99.90;;;;;;4914559;28;20062;-74
2022/12/20 08:36:53;;;;;;;9.05;4.38;;;10.30;99.90;;;;;;4938315;28;20047;-75
2022/12/20 08:39:19;;;;;;;8.32;4.13;;;10.30;99.90;;;;;;4930434;28;20491;-75
2022/12/20 08:41:44;;;;;;;8.50;4.20;;;10.30;99.90;;;;;;4950081;28;20047;-75
2022/12/20 08:44:10;;;;;;;9.13;4.35;;;10.30;99.90;;;;;;4943989;28;20049;-75
2022/12/20 08:46:36;;;;;;;7.90;4.32;;;10.40;99.90;;;;;;4920941;28;20126;-75
2022/12/20 08:49:03;;;;;;;8.02;4.05;;;10.30;99.90;;;;;;4970316;28;20047;-75
2022/12/20 08:51:29;;;;;;;6.90;3.90;;;10.40;99.90;;;;;;4947084;28;20149;-72
2022/12/20 08:53:54;;;;;;;6.90;4.05;;;10.40;99.90;;;;;;4964743;28;20165;-74
2022/12/20 08:56:20;;;;;;;7.55;3.97;;;10.40;99.90;;;;;;4939059;28;20459;-76
2022/12/20 08:58:46;;;;;;;7.57;3.88;;;10.40;99.90;;;;;;4949708;28;20503;-75
2022/12/20 09:01:15;;;;;;;7.47;3.55;;;10.40;99.90;;;;;;4970382;28;20074;-75
2022/12/20 09:03:41;;;;;;;7.32;3.80;;;10.40;99.90;;;;;;4946194;28;20034;-76
2022/12/20 09:06:09;;;;;;;7.45;3.83;;;10.40;99.90;;;;;;4925892;28;20035;-73
2022/12/20 09:08:37;;;;;;;7.22;3.60;;;10.50;99.90;;;;;;4955108;28;20519;-76
2022/12/20 09:11:11;;;;;;;6.97;4.05;;;10.50;99.90;;;;;;4950688;28;20475;-74
2022/12/20 09:13:38;;;;;;;8.68;4.20;;;10.50;99.90;;;;;;4950284;28;20053;-72
2022/12/20 09:16:06;;;;;;;8.15;4.00;;;10.50;99.90;;;;;;4951111;28;20113;-73
2022/12/20 09:18:32;;;;;;;6.78;3.78;;;10.60;99.90;;;;;;4951250;28;20129;-74
2022/12/20 09:21:02;;;;;;;7.93;4.15;;;10.60;99.90;;;;;;4948735;28;20051;-76
2022/12/20 09:23:29;;;;;;;7.22;3.90;;;10.60;99.90;;;;;;4946312;28;20495;-73
2022/12/20 09:26:00;;;;;;;8.10;3.95;;;10.60;99.90;;;;;;4943419;28;20374;-74
2022/12/20 09:28:25;;;;;;;8.32;4.13;;;10.60;99.90;;;;;;4945617;28;20507;-74
2022/12/20 09:30:51;;;;;;;9.05;4.07;;;10.70;99.90;;;;;;4941935;28;20050;-76
2022/12/20 09:33:17;;;;;;;8.50;4.40;;;10.70;99.90;;;;;;4962632;28;20050;-72
2022/12/20 09:35:45;;;;;;;8.68;4.13;;;10.70;99.90;;;;;;4943326;28;20051;-76
2022/12/20 09:38:11;;;;;;;6.72;3.95;;;10.70;99.90;;;;;;4940152;28;20059;-74
2022/12/20 09:40:37;;;;;;;8.73;4.30;;;10.60;99.90;;;;;;4947558;28;20151;-76
2022/12/20 09:43:04;;;;;;;6.88;3.97;;;10.60;99.90;;;;;;4942949;28;20078;-73
2022/12/20 09:45:34;;;;;;;7.43;4.00;;;10.60;99.90;;;;;;4958855;28;20053;-71
2022/12/20 09:48:00;;;;;;;8.68;3.95;;;10.60;99.90;;;;;;4942523;28;20124;-72
2022/12/20 09:50:45;;;;;;;7.15;3.90;;;10.60;99.90;;;;;;4948832;28;20502;-71
2022/12/20 09:53:17;;;;;;;8.23;4.00;;;10.60;99.90;;;;;;4942466;28;20562;-74
2022/12/20 09:55:51;;;;;;;7.40;4.05;;;10.60;99.90;;;;;;4942339;28;20047;-74
2022/12/20 09:58:51;;;;;;;8.18;4.15;;;10.60;99.90;;;;;;4944025;28;20087;-74
2022/12/20 10:01:21;;;;;;;7.50;3.80;;;10.60;99.90;;;;;;4965078;28;20097;-73
2022/12/20 10:03:46;;;;;;;7.15;3.90;;;10.60;99.90;;;;;;4939889;28;20448;-71
2022/12/20 10:06:29;;;;;;;9.20;4.22;;;10.50;99.90;;;;;;4959636;28;20051;-73
2022/12/20 10:09:01;;;;;;;8.18;4.05;;;10.60;99.90;;;;;;4945860;28;20121;-75
2022/12/20 10:11:27;;;;;;;;;;;10.50;99.90;;;;;;4953848;28;20319;-75
2022/12/20 10:14:15;;;;;;;8.90;4.07;;;10.40;99.90;;;;;;4948143;28;19931;-72
2022/12/20 10:16:53;;;;;;;8.18;4.57;;;10.40;99.90;;;;;;4948507;28;20070;-71
2022/12/20 10:19:46;;;;;;;10.43;5.00;;;10.30;99.90;;;;;;4945138;28;20467;-73
2022/12/20 10:22:32;;;;;;;8.48;5.22;;;10.30;99.90;;;;;;4943157;28;20384;-73
2022/12/20 10:25:10;;;;;;;11.25;5.32;;;10.20;99.90;;;;;;4939520;28;20047;-74
2022/12/20 10:27:41;;;;;;;8.35;5.25;;;10.20;99.90;;;;;;4944001;28;20089;-76
2022/12/20 10:30:31;;;;;;;8.02;4.70;;;10.10;99.90;;;;;;4947282;28;20479;-73
2022/12/20 10:32:58;;;;;;;11.50;5.65;;;10.10;99.90;;;;;;4944481;28;20518;-74
2022/12/20 10:35:30;;;;;;;9.73;5.60;;;10.10;99.90;;;;;;4943628;28;20042;-76
2022/12/20 10:38:00;;;;;;;10.35;5.80;;;10.00;99.90;;;;;;4944487;28;20047;-76
2022/12/20 10:40:59;;;;;;;9.63;5.00;;;10.00;99.90;;;;;;4943627;28;20072;-76
2022/12/20 10:43:26;;;;;;;8.60;5.38;;;10.00;99.90;;;;;;4934091;28;20054;-76
2022/12/20 10:46:05;;;;;;;8.70;5.28;;;10.00;99.90;;;;;;4947776;28;20061;-77
2022/12/20 10:48:33;;;;;;;10.07;5.60;;;10.00;99.90;;;;;;4947624;28;20101;-78
2022/12/20 10:51:13;;;;;;;13.98;6.47;;;10.00;99.90;;;;;;4934488;28;20039;-77
2022/12/20 10:54:20;;;;;;;8.77;4.88;;;9.90;99.90;;;;;;4947653;28;20359;-75
2022/12/20 10:56:56;;;;;;;10.60;5.78;;;10.00;99.90;;;;;;4932338;28;20134;-79
2022/12/20 10:59:35;;;;;;;11.75;6.07;;;10.00;99.90;;;;;;4933774;28;20047;-78
2022/12/20 11:02:22;;;;;;;10.07;5.57;;;10.00;99.90;;;;;;4962803;28;20047;-79
2022/12/20 11:05:08;;;;;;;9.65;6.10;;;10.00;99.90;;;;;;4964969;28;20066;-75
2022/12/20 11:07:34;;;;;;;10.48;5.57;;;10.00;99.90;;;;;;4948199;28;20060;-78
2022/12/20 11:10:23;;;;;;;11.98;6.63;;;10.00;99.90;;;;;;4951307;28;20043;-76
2022/12/20 11:12:58;;;;;;;11.45;5.75;;;10.00;99.90;;;;;;4949802;28;20507;-75
2022/12/20 11:15:30;;;;;;;10.52;6.10;;;10.10;99.90;;;;;;4961561;28;20534;-78
2022/12/20 11:18:10;;;;;;;9.27;5.75;;;10.10;99.90;;;;;;4948946;28;20090;-74
2022/12/20 11:20:46;;;;;;;13.00;5.90;;;10.10;99.90;;;;;;4960965;28;20047;-76
2022/12/20 11:23:30;;;;;;;10.02;6.32;;;10.20;99.90;;;;;;4947720;28;20062;-75
2022/12/20 11:26:23;;;;;;;11.10;5.60;;;10.20;99.90;;;;;;4946224;28;20054;-76
2022/12/20 11:29:01;;;;;;;9.65;5.70;;;10.30;99.90;;;;;;4952221;28;20055;-76
2022/12/20 11:31:41;;;;;;;10.88;5.55;;;10.30;99.90;;;;;;4946287;28;20109;-80
2022/12/20 11:34:34;;;;;;;8.68;5.20;;;10.30;99.90;;;;;;4948329;28;20059;-78
2022/12/20 11:37:15;;;;;;;10.40;5.63;;;10.40;99.90;;;;;;4947223;28;20141;-77
2022/12/20 11:39:49;;;;;;;10.07;5.68;;;10.40;99.90;;;;;;4946336;28;20043;-78
2022/12/20 11:42:15;;;;;;;8.98;5.53;;;10.30;99.90;;;;;;4965272;28;20640;-76
2022/12/20 11:45:19;;;;;;;10.77;6.28;;;10.30;99.90;;;;;;4952150;28;20502;-74
2022/12/20 11:47:55;;;;;;;10.82;5.82;;;10.30;99.90;;;;;;4942684;28;20059;-78
2022/12/20 11:50:49;;;;;;;8.80;5.75;;;10.20;99.90;;;;;;4969033;28;20074;-76
2022/12/20 11:53:39;;;;;;;11.35;5.82;;;10.30;99.90;;;;;;4951369;28;20049;-77
2022/12/20 11:56:23;;;;;;;9.45;5.43;;;10.20;99.90;;;;;;4964570;28;20506;-77
2022/12/20 11:59:04;;;;;;;9.88;5.82;;;10.20;99.90;;;;;;4951151;28;20082;-75
2022/12/20 12:01:52;;;;;;;11.15;6.03;;;10.20;99.90;;;;;;4952723;28;20163;-75
2022/12/20 12:04:32;;;;;;;9.52;6.13;;;10.20;99.90;;;;;;4951875;28;20051;-77
2022/12/20 12:07:08;;;;;;;10.13;5.78;;;10.20;99.90;;;;;;4970214;28;20042;-75
2022/12/20 12:09:53;;;;;;;11.68;6.68;;;10.20;99.90;;;;;;4951804;28;20567;-76
2022/12/20 12:12:45;;;;;;;10.35;7.18;;;10.20;99.90;;;;;;4953590;28;20487;-76
2022/12/20 12:15:34;;;;;;;10.10;6.80;;;10.10;99.90;;;;;;4968307;28;20066;-75
2022/12/20 12:18:10;;;;;;;10.55;6.30;;;10.10;99.90;;;;;;4949429;28;20054;-75
2022/12/20 12:21:03;;;;;;;10.75;7.30;;;10.10;99.90;;;;;;4967574;28;20121;-74
2022/12/20 12:23:41;;;;;;;12.65;6.97;;;10.10;99.90;;;;;;4955336;28;20063;-77
2022/12/20 12:26:23;;;;;;;11.52;7.82;;;10.10;99.90;;;;;;4968159;28;20187;-77
2022/12/20 12:28:59;;;;;;;11.52;7.00;;;10.10;99.90;;;;;;4951729;28;20051;-74
2022/12/20 12:31:42;;;;;;;11.90;7.28;;;10.10;99.90;;;;;;4955867;28;20126;-73
2022/12/20 12:34:27;;;;;;;15.20;7.47;;;10.10;99.90;;;;;;4948801;28;20502;-75
2022/12/20 12:37:11;;;;;;;11.43;7.00;;;10.10;99.90;;;;;;4965606;28;20046;-75
2022/12/20 12:40:15;;;;;;;12.38;7.07;;;10.10;99.90;;;;;;4946064;28;20082;-76
2022/12/20 12:43:05;;;;;;;12.23;7.90;;;10.10;99.90;;;;;;4946882;28;20043;-74
2022/12/20 12:45:43;;;;;;;13.15;8.35;;;10.10;99.90;;;;;;4931270;28;20070;-75
2022/12/20 12:48:38;;;;;;;12.95;8.02;;;10.10;99.90;;;;;;4949050;28;20043;-74
2022/12/20 12:51:05;;;;;;;10.93;7.47;;;10.10;99.90;;;;;;4946838;28;20043;-75
2022/12/20 12:53:44;;;;;;;12.40;8.00;;;10.10;99.90;;;;;;4948253;28;20125;-73
2022/12/20 12:56:26;;;;;;;11.20;7.93;;;10.10;99.90;;;;;;4945986;28;20043;-74
2022/12/20 12:59:08;;;;;;;11.03;7.90;;;10.10;99.90;;;;;;4948929;28;20055;-75
2022/12/20 13:01:53;;;;;;;;;;;10.10;99.90;;;;;;4948178;28;20407;-74
2022/12/20 13:04:19;;;;;;;12.63;8.20;;;10.10;99.90;;;;;;4949071;28;19933;-75
2022/12/20 13:06:47;;;;;;;15.00;8.98;;;10.10;99.90;;;;;;4966040;28;20050;-74
2022/12/20 13:09:34;;;;;;;12.35;8.05;;;10.10;99.90;;;;;;4971651;28;20050;-75
2022/12/20 13:12:49;;;;;;;14.15;8.70;;;10.10;99.90;;;;;;4935247;28;20071;-76